createdAt,value
2023-05-24T00:03:25.270Z,11.48
2023-05-24T00:08:30.511Z,11.32
2023-05-24T00:13:40.029Z,11.48
2023-05-24T00:18:47.349Z,11.08
2023-05-24T00:23:52.528Z,11.32
2023-05-24T00:29:00.648Z,11.40
2023-05-24T00:34:05.861Z,11.25
2023-05-24T00:39:15.715Z,11.44
2023-05-24T00:44:26.777Z,11.56
2023-05-24T00:49:33.196Z,11.01
2023-05-24T00:54:40.940Z,11.16
2023-05-24T00:59:53.788Z,11.02
2023-05-24T01:05:00.234Z,11.14
2023-05-24T01:10:20.132Z,10.99
2023-05-24T01:15:34.603Z,11.48
2023-05-24T01:20:43.244Z,10.79
2023-05-24T01:26:17.940Z,10.43
2023-05-24T01:31:28.972Z,10.63
2023-05-24T01:36:34.081Z,10.62
2023-05-24T01:41:46.045Z,10.51
2023-05-24T01:47:07.875Z,10.44
2023-05-24T01:52:18.844Z,10.37
2023-05-24T01:57:26.190Z,10.36
2023-05-24T02:02:34.165Z,10.36
2023-05-24T02:07:39.463Z,10.48
2023-05-24T02:12:45.176Z,10.15
2023-05-24T02:17:54.891Z,10.11
2023-05-24T02:23:00.729Z,10.05
2023-05-24T02:28:06.084Z,9.96
2023-05-24T02:33:14.361Z,9.96
2023-05-24T02:38:19.663Z,9.87
2023-05-24T02:43:24.885Z,10.10
2023-05-24T02:48:33.142Z,10.05
2023-05-24T02:53:38.698Z,9.96
2023-05-24T02:58:45.197Z,10.15
2023-05-24T03:03:55.873Z,10.17
2023-05-24T03:09:01.993Z,10.17
2023-05-24T03:14:07.633Z,9.74
2023-05-24T03:19:17.487Z,9.68
2023-05-24T03:24:22.763Z,9.77
2023-05-24T03:29:28.127Z,9.86
2023-05-24T03:34:41.306Z,9.95
2023-05-24T03:39:47.547Z,9.98
2023-05-24T03:45:14.970Z,9.99
2023-05-24T03:50:27.371Z,9.99
2023-05-24T03:55:32.502Z,10.16
2023-05-24T04:00:37.856Z,10.13
2023-05-24T04:05:48.693Z,10.06
2023-05-24T04:10:58.489Z,10.01
2023-05-24T04:16:06.005Z,9.97
2023-05-24T04:21:16.913Z,10.22
2023-05-24T04:26:33.352Z,10.17
2023-05-24T04:31:38.725Z,10.42
2023-05-24T04:36:54.629Z,10.03
2023-05-24T04:42:00.961Z,10.48
2023-05-24T04:47:12.911Z,10.56
2023-05-24T04:52:22.918Z,10.42
2023-05-24T04:57:29.045Z,10.48
2023-05-24T05:02:37.213Z,10.56
2023-05-24T05:07:45.620Z,10.42
2023-05-24T05:12:50.727Z,10.29
2023-05-24T05:17:59.836Z,10.50
2023-05-24T05:23:07.901Z,10.43
2023-05-24T05:28:13.428Z,10.54
2023-05-24T05:33:21.283Z,10.97
2023-05-24T05:38:29.101Z,10.79
2023-05-24T05:43:38.135Z,11.06
2023-05-24T05:48:46.831Z,11.11
2023-05-24T05:53:54.778Z,10.99
2023-05-24T05:59:00.231Z,11.29
2023-05-24T06:04:16.011Z,11.59
2023-05-24T06:09:24.909Z,11.26
2023-05-24T06:14:32.695Z,11.03
2023-05-24T06:19:38.743Z,11.33
2023-05-24T06:24:46.788Z,11.34
2023-05-24T06:29:53.595Z,11.23
2023-05-24T06:35:07.094Z,11.50
2023-05-24T06:40:16.352Z,11.69
2023-05-24T06:45:21.727Z,11.80
2023-05-24T06:50:27.008Z,11.22
2023-05-24T06:55:34.822Z,11.15
2023-05-24T07:00:44.704Z,11.18
2023-05-24T07:05:51.766Z,11.34
2023-05-24T07:11:01.806Z,10.91
2023-05-24T07:16:10.616Z,11.29
2023-05-24T07:21:17.936Z,11.24
2023-05-24T07:26:25.669Z,12.19
2023-05-24T07:31:32.656Z,11.66
2023-05-24T07:36:37.830Z,11.97
2023-05-24T07:41:46.033Z,11.77
2023-05-24T07:46:53.223Z,11.12
2023-05-24T07:52:00.494Z,11.65
2023-05-24T07:57:11.233Z,11.10
2023-05-24T08:02:17.352Z,11.44
2023-05-24T08:12:51.684Z,11.17
2023-05-24T08:17:57.014Z,11.07
2023-05-24T08:23:04.869Z,11.16
2023-05-24T08:28:15.624Z,11.08
2023-05-24T08:33:23.080Z,11.29
2023-05-24T08:38:29.652Z,11.58
2023-05-24T08:43:38.418Z,12.06
2023-05-24T08:48:49.632Z,12.49
2023-05-24T08:53:59.173Z,12.03
2023-05-24T08:59:08.936Z,11.97
2023-05-24T09:04:15.100Z,11.61
2023-05-24T09:09:25.919Z,11.96
2023-05-24T09:14:35.866Z,12.03
2023-05-24T09:19:44.788Z,12.07
2023-05-24T09:24:51.522Z,12.02
2023-05-24T09:29:59.212Z,11.85
2023-05-24T09:35:07.511Z,11.72
2023-05-24T09:40:21.960Z,12.02
2023-05-24T09:45:33.598Z,12.96
2023-05-24T09:50:40.022Z,11.74
2023-05-24T09:55:54.138Z,12.71
2023-05-24T10:01:14.146Z,12.47
2023-05-24T10:06:21.235Z,13.26
2023-05-24T10:11:33.719Z,12.98
2023-05-24T10:16:42.272Z,13.50
2023-05-24T10:21:50.191Z,14.33
2023-05-24T10:26:59.248Z,13.11
2023-05-24T10:32:08.875Z,14.08
2023-05-24T10:37:20.009Z,14.61
2023-05-24T10:42:26.627Z,13.54
2023-05-24T10:47:35.850Z,15.20
2023-05-24T10:52:44.112Z,14.64
2023-05-24T10:58:12.881Z,14.95
2023-05-24T11:03:30.245Z,15.39
2023-05-24T11:08:39.250Z,14.89
2023-05-24T11:13:45.415Z,14.76
2023-05-24T11:19:00.910Z,15.09
2023-05-24T11:24:10.272Z,15.64
2023-05-24T11:29:19.344Z,14.86
2023-05-24T11:34:31.161Z,15.71
2023-05-24T11:39:38.816Z,15.71
2023-05-24T11:44:44.129Z,14.62
2023-05-24T11:50:01.413Z,15.90
2023-05-24T11:55:07.523Z,16.00
2023-05-24T12:00:17.380Z,16.28
2023-05-24T12:05:26.785Z,16.40
2023-05-24T12:10:34.484Z,15.34
2023-05-24T12:15:41.046Z,16.60
2023-05-24T12:20:49.178Z,16.03
2023-05-24T12:26:03.645Z,16.33
2023-05-24T12:31:14.993Z,16.72
2023-05-24T12:36:24.287Z,15.94
2023-05-24T12:41:36.784Z,16.36
2023-05-24T12:46:42.050Z,17.25
2023-05-24T12:51:51.737Z,16.30
2023-05-24T12:57:02.414Z,16.24
2023-05-24T13:02:08.892Z,17.06
2023-05-24T13:07:17.157Z,16.32
2023-05-24T13:12:24.271Z,15.64
2023-05-24T13:17:29.856Z,16.26
2023-05-24T13:22:40.504Z,17.38
2023-05-24T13:27:52.287Z,17.68
2023-05-24T13:33:29.659Z,16.80
2023-05-24T13:38:54.317Z,15.97
2023-05-24T13:44:17.159Z,17.68
2023-05-24T13:49:23.501Z,17.00
2023-05-24T13:54:32.451Z,16.89
2023-05-24T13:59:38.063Z,16.30
2023-05-24T14:04:43.324Z,16.43
2023-05-24T14:09:54.649Z,17.66
2023-05-24T14:15:00.462Z,17.49
2023-05-24T14:20:07.637Z,18.25
2023-05-24T14:25:17.151Z,17.73
2023-05-24T14:30:22.271Z,17.52
2023-05-24T14:35:28.192Z,17.55
2023-05-24T14:40:37.559Z,17.37
2023-05-24T14:45:44.293Z,17.71
2023-05-24T14:50:51.992Z,17.72
2023-05-24T14:55:59.744Z,17.13
2023-05-24T15:01:05.107Z,17.89
2023-05-24T15:06:13.004Z,17.12
2023-05-24T15:11:21.106Z,17.68
2023-05-24T15:16:26.607Z,17.11
2023-05-24T15:21:34.404Z,17.47
2023-05-24T15:26:44.637Z,17.46
2023-05-24T15:31:51.083Z,17.06
2023-05-24T15:36:56.160Z,17.72
2023-05-24T15:42:04.285Z,17.45
2023-05-24T15:47:09.693Z,16.72
2023-05-24T15:52:16.516Z,16.93
2023-05-24T15:57:24.288Z,17.79
2023-05-24T16:02:30.184Z,17.11
2023-05-24T16:07:35.581Z,16.88
2023-05-24T16:12:46.425Z,17.07
2023-05-24T16:17:51.708Z,16.72
2023-05-24T16:22:57.038Z,16.59
2023-05-24T16:28:04.742Z,17.33
2023-05-24T16:33:09.929Z,17.05
2023-05-24T16:38:15.056Z,16.61
2023-05-24T16:43:23.223Z,16.95
2023-05-24T16:48:32.004Z,17.44
2023-05-24T16:53:37.253Z,17.25
2023-05-24T16:58:45.101Z,17.16
2023-05-24T17:03:51.456Z,17.48
2023-05-24T17:08:57.399Z,17.64
2023-05-24T17:14:09.513Z,17.50
2023-05-24T17:19:19.606Z,16.88
2023-05-24T17:24:27.906Z,16.32
2023-05-24T17:29:36.418Z,16.67
2023-05-24T17:34:41.574Z,17.04
2023-05-24T17:39:47.531Z,16.66
2023-05-24T17:44:56.531Z,16.76
2023-05-24T17:50:02.876Z,16.66
2023-05-24T17:55:12.691Z,16.41
2023-05-24T18:00:22.939Z,16.29
2023-05-24T18:05:28.081Z,16.48
2023-05-24T18:10:35.654Z,15.94
2023-05-24T18:15:46.738Z,16.27
2023-05-24T18:20:52.213Z,15.83
2023-05-24T18:26:00.249Z,15.86
2023-05-24T18:31:15.095Z,15.70
2023-05-24T18:36:20.314Z,15.43
2023-05-24T18:41:25.581Z,15.66
2023-05-24T18:46:33.884Z,15.36
2023-05-24T18:51:39.156Z,14.93
2023-05-24T18:56:45.771Z,15.02
2023-05-24T19:01:55.501Z,13.88
2023-05-24T19:07:00.840Z,14.29
2023-05-24T19:12:06.319Z,14.03
2023-05-24T19:17:15.559Z,13.78
2023-05-24T19:22:20.688Z,13.86
2023-05-24T19:27:25.908Z,14.03
2023-05-24T19:32:35.945Z,14.06
2023-05-24T19:37:42.660Z,13.96
2023-05-24T19:42:49.609Z,14.19
2023-05-24T19:47:58.182Z,13.71
2023-05-24T19:53:05.692Z,13.70
2023-05-24T19:58:10.960Z,13.51
2023-05-24T20:03:19.581Z,13.15
2023-05-24T20:08:26.404Z,13.23
2023-05-24T20:13:33.892Z,13.02
2023-05-24T20:18:44.330Z,12.80
2023-05-24T20:23:50.862Z,13.06
2023-05-24T20:28:56.153Z,12.74
2023-05-24T20:34:04.094Z,12.45
2023-05-24T20:39:09.651Z,12.63
2023-05-24T20:44:15.010Z,12.13
2023-05-24T20:49:24.829Z,12.04
2023-05-24T20:54:29.918Z,12.09
2023-05-24T20:59:35.359Z,11.71
2023-05-24T21:04:43.141Z,11.69
2023-05-24T21:09:57.568Z,11.53
2023-05-24T21:15:02.894Z,11.25
2023-05-24T21:20:13.013Z,11.30
2023-05-24T21:25:18.943Z,11.25
2023-05-24T21:30:24.157Z,11.06
2023-05-24T21:35:32.816Z,10.82
2023-05-24T21:40:38.008Z,10.94
2023-05-24T21:45:43.416Z,10.69
2023-05-24T21:50:52.456Z,10.71
2023-05-24T21:55:57.673Z,10.40
2023-05-24T22:01:03.390Z,10.38
2023-05-24T22:06:13.283Z,10.42
2023-05-24T22:11:23.683Z,10.49
2023-05-24T22:16:29.437Z,10.60
2023-05-24T22:21:38.535Z,11.17
2023-05-24T22:26:47.446Z,10.87
2023-05-24T22:32:00.435Z,11.14
2023-05-24T22:37:08.501Z,10.96
2023-05-24T22:42:17.051Z,10.64
2023-05-24T22:47:33.692Z,10.13
2023-05-24T22:52:43.229Z,9.91
2023-05-24T22:57:48.488Z,9.65
2023-05-24T23:02:54.570Z,9.63
2023-05-24T23:08:06.381Z,9.57
2023-05-24T23:13:11.948Z,9.81
2023-05-24T23:18:18.331Z,9.56
2023-05-24T23:23:27.530Z,9.23
2023-05-24T23:28:32.955Z,9.10
2023-05-24T23:33:38.711Z,8.90
2023-05-24T23:38:50.388Z,8.97
2023-05-24T23:43:55.596Z,8.60
2023-05-24T23:49:00.781Z,8.56
2023-05-24T23:54:09.941Z,8.50
2023-05-24T23:59:15.161Z,8.68
